Time;durP1;ratioP1;P1;durP2;ratioP2;P2;SDS_P1;SDS_P2;PMS_P1;PMS_P2;Temp;Humidity;BMP_temperature;BMP_pressure;BME280_temperature;BME280_humidity;BME280_pressure;Samples;Min_cycle;Max_cycle;Signal;HPM_P1;HPM_P2
2023/11/23 00:02:08;;;;;;;7.40;3.95;;;;;;;;;;6259734;28;20041;-77
2023/11/23 00:05:11;;;;;;;7.13;3.38;;;;;;;;;;6248958;28;20060;-77
2023/11/23 00:08:13;;;;;;;5.72;2.88;;;;;;;;;;6279607;28;20104;-79
2023/11/23 00:11:15;;;;;;;5.30;2.67;;;;;;;;;;6256159;28;20173;-79
2023/11/23 00:14:17;;;;;;;7.28;3.00;;;;;;;;;;6263421;28;20053;-79
2023/11/23 00:17:19;;;;;;;4.00;2.65;;;;;;;;;;6262183;28;20045;-78
2023/11/23 00:20:21;;;;;;;5.18;3.08;;;;;;;;;;6252010;28;20177;-78
2023/11/23 00:23:23;;;;;;;6.20;2.42;;;;;;;;;;6257920;28;20135;-77
2023/11/23 00:26:24;;;;;;;7.15;3.30;;;;;;;;;;6247832;28;20064;-78
2023/11/23 00:29:32;;;;;;;5.57;2.78;;;;;;;;;;6252876;28;20112;-76
2023/11/23 00:32:34;;;;;;;6.25;3.13;;;;;;;;;;6263795;28;20048;-79
2023/11/23 00:35:36;;;;;;;4.28;2.88;;;;;;;;;;6265095;28;20048;-79
2023/11/23 00:38:40;;;;;;;5.38;2.92;;;;;;;;;;6267653;28;20064;-78
2023/11/23 00:41:43;;;;;;;5.50;2.72;;;;;;;;;;6248378;28;20045;-77
2023/11/23 00:44:45;;;;;;;4.38;2.78;;;;;;;;;;6254362;28;20044;-76
2023/11/23 00:47:47;;;;;;;4.75;2.83;;;;;;;;;;6244896;28;20052;-77
2023/11/23 00:50:49;;;;;;;5.70;2.95;;;;;;;;;;6250284;28;20052;-78
2023/11/23 00:53:51;;;;;;;6.30;2.95;;;;;;;;;;6251360;28;20047;-78
2023/11/23 00:56:53;;;;;;;6.50;3.15;;;;;;;;;;6265802;28;20040;-77
2023/11/23 00:59:55;;;;;;;5.53;3.17;;;;;;;;;;6248382;28;20522;-78
2023/11/23 01:02:57;;;;;;;6.88;3.30;;;;;;;;;;6251892;28;20481;-77
2023/11/23 01:05:59;;;;;;;6.20;3.33;;;;;;;;;;6258649;28;20055;-78
2023/11/23 01:09:02;;;;;;;5.05;3.35;;;;;;;;;;6266625;28;20055;-77
2023/11/23 01:12:08;;;;;;;5.47;3.42;;;;;;;;;;6264048;28;20561;-77
2023/11/23 01:15:12;;;;;;;5.97;3.00;;;;;;;;;;6250757;28;20051;-76
2023/11/23 01:18:15;;;;;;;9.13;3.25;;;;;;;;;;6249229;28;20136;-77
2023/11/23 01:21:17;;;;;;;6.32;3.40;;;;;;;;;;6271480;28;20116;-77
2023/11/23 01:24:18;;;;;;;6.53;3.17;;;;;;;;;;6254047;28;20248;-77
2023/11/23 01:27:20;;;;;;;7.03;3.60;;;;;;;;;;6255439;28;20052;-78
2023/11/23 01:30:22;;;;;;;7.65;3.58;;;;;;;;;;6253664;28;20070;-78
2023/11/23 01:33:24;;;;;;;5.25;3.30;;;;;;;;;;6253668;28;20053;-77
2023/11/23 01:36:27;;;;;;;7.13;3.13;;;;;;;;;;6282756;28;20045;-77
2023/11/23 01:39:29;;;;;;;4.93;3.20;;;;;;;;;;6262755;28;20045;-77
2023/11/23 01:42:31;;;;;;;4.90;2.90;;;;;;;;;;6275681;28;20048;-76
2023/11/23 01:45:32;;;;;;;4.35;2.70;;;;;;;;;;6262698;28;20041;-77
2023/11/23 01:48:35;;;;;;;6.22;2.80;;;;;;;;;;6279589;28;20041;-77
2023/11/23 01:51:37;;;;;;;6.22;3.40;;;;;;;;;;6273816;28;20048;-77
2023/11/23 01:54:39;;;;;;;6.03;3.28;;;;;;;;;;6270971;28;20072;-78
2023/11/23 01:57:43;;;;;;;5.22;3.03;;;;;;;;;;6267117;28;20068;-78
2023/11/23 02:00:45;;;;;;;;;;;;;;;;;;6264008;28;20541;-77
2023/11/23 02:03:48;;;;;;;6.07;3.58;;;;;;;;;;6265458;28;19921;-78
2023/11/23 02:06:50;;;;;;;4.82;3.47;;;;;;;;;;6284982;28;20068;-78
2023/11/23 02:09:52;;;;;;;5.82;3.38;;;;;;;;;;6246562;28;20048;-77
2023/11/23 02:12:55;;;;;;;7.72;3.90;;;;;;;;;;6268183;28;20053;-77
2023/11/23 02:15:57;;;;;;;10.98;3.90;;;;;;;;;;6256381;28;20522;-76
2023/11/23 02:18:59;;;;;;;7.05;4.47;;;;;;;;;;6278991;28;20041;-78
2023/11/23 02:22:01;;;;;;;6.93;4.25;;;;;;;;;;6269255;28;20177;-78
2023/11/23 02:25:06;;;;;;;7.88;3.97;;;;;;;;;;6248644;28;20045;-77
2023/11/23 02:28:09;;;;;;;8.65;4.25;;;;;;;;;;6268122;28;20052;-76
2023/11/23 02:31:11;;;;;;;8.68;4.38;;;;;;;;;;6261911;28;20071;-77
2023/11/23 02:34:12;;;;;;;7.60;3.75;;;;;;;;;;6258698;28;20056;-77
2023/11/23 02:37:14;;;;;;;6.18;3.38;;;;;;;;;;6240332;28;20422;-77
2023/11/23 02:40:16;;;;;;;5.50;3.30;;;;;;;;;;6260645;28;20104;-78
2023/11/23 02:43:19;;;;;;;6.53;3.25;;;;;;;;;;6274276;28;20045;-77
2023/11/23 02:46:20;;;;;;;6.47;3.30;;;;;;;;;;6268609;28;20136;-77
2023/11/23 02:49:22;;;;;;;8.10;3.83;;;;;;;;;;6259544;28;20525;-76
2023/11/23 02:52:24;;;;;;;6.82;3.78;;;;;;;;;;6254742;28;20118;-77
2023/11/23 02:55:26;;;;;;;6.22;3.38;;;;;;;;;;6264893;28;20044;-77
2023/11/23 02:58:28;;;;;;;8.18;3.63;;;;;;;;;;6262367;28;20119;-77
2023/11/23 03:01:33;;;;;;;6.45;3.50;;;;;;;;;;6265833;28;20057;-77
2023/11/23 03:04:35;;;;;;;5.22;3.13;;;;;;;;;;6248793;28;20457;-76
2023/11/23 03:07:37;;;;;;;7.93;3.70;;;;;;;;;;6247276;28;20047;-76
2023/11/23 03:10:39;;;;;;;7.68;3.47;;;;;;;;;;6268854;28;20502;-75
2023/11/23 03:13:41;;;;;;;8.05;3.78;;;;;;;;;;6259890;28;20493;-76
2023/11/23 03:16:44;;;;;;;6.85;3.90;;;;;;;;;;6254424;28;20057;-76
2023/11/23 03:19:46;;;;;;;6.22;3.60;;;;;;;;;;6270235;28;20052;-78
2023/11/23 03:22:48;;;;;;;7.50;4.03;;;;;;;;;;6257779;28;20055;-76
2023/11/23 03:25:50;;;;;;;12.13;4.22;;;;;;;;;;6263228;28;20037;-77
2023/11/23 03:28:51;;;;;;;9.38;4.80;;;;;;;;;;6253291;28;20123;-78
2023/11/23 03:31:54;;;;;;;10.63;4.73;;;;;;;;;;6267745;28;20053;-75
2023/11/23 03:34:56;;;;;;;8.77;4.03;;;;;;;;;;6255553;28;20044;-77
2023/11/23 03:37:58;;;;;;;10.20;5.72;;;;;;;;;;6272921;28;20407;-77
2023/11/23 03:41:01;;;;;;;11.73;6.55;;;;;;;;;;6266439;28;20045;-75
2023/11/23 03:44:02;;;;;;;13.80;5.38;;;;;;;;;;6246032;28;20048;-76
2023/11/23 03:47:04;;;;;;;8.82;5.03;;;;;;;;;;6272491;28;20081;-76
2023/11/23 03:50:07;;;;;;;11.98;5.57;;;;;;;;;;6255599;28;20127;-77
2023/11/23 03:53:09;;;;;;;12.77;5.67;;;;;;;;;;6248950;28;20053;-77
2023/11/23 03:56:16;;;;;;;9.43;4.85;;;;;;;;;;6271647;28;20055;-78
2023/11/23 03:59:18;;;;;;;7.07;3.90;;;;;;;;;;6250265;28;20128;-76
2023/11/23 04:02:19;;;;;;;9.32;4.55;;;;;;;;;;6238694;28;20207;-76
2023/11/23 04:05:22;;;;;;;9.60;4.28;;;;;;;;;;6270532;28;20044;-77
2023/11/23 04:08:23;;;;;;;8.90;4.53;;;;;;;;;;6261871;28;20049;-77
2023/11/23 04:11:26;;;;;;;9.10;4.35;;;;;;;;;;6236304;28;20042;-76
2023/11/23 04:14:30;;;;;;;8.38;4.28;;;;;;;;;;6233899;28;20060;-77
2023/11/23 04:17:32;;;;;;;7.63;4.47;;;;;;;;;;6244823;28;20127;-77
2023/11/23 04:20:35;;;;;;;11.95;5.20;;;;;;;;;;6249953;28;20037;-77
2023/11/23 04:23:37;;;;;;;11.98;5.47;;;;;;;;;;6242681;28;20131;-76
2023/11/23 04:26:41;;;;;;;9.95;4.63;;;;;;;;;;6248208;28;20059;-77
2023/11/23 04:29:43;;;;;;;10.02;5.00;;;;;;;;;;6255010;28;20547;-77
2023/11/23 04:32:45;;;;;;;8.98;4.25;;;;;;;;;;6236172;28;20423;-76
2023/11/23 04:35:47;;;;;;;10.55;5.20;;;;;;;;;;6256266;28;20125;-75
2023/11/23 04:38:49;;;;;;;9.95;4.88;;;;;;;;;;6237205;28;20116;-77
2023/11/23 04:41:51;;;;;;;10.02;5.53;;;;;;;;;;6255487;28;20045;-78
2023/11/23 04:44:52;;;;;;;11.07;5.07;;;;;;;;;;6240791;28;20051;-77
2023/11/23 04:47:54;;;;;;;10.02;4.97;;;;;;;;;;6239898;28;20418;-77
2023/11/23 04:50:57;;;;;;;11.50;4.93;;;;;;;;;;6242890;28;20041;-77
2023/11/23 04:53:59;;;;;;;10.48;4.72;;;;;;;;;;6253406;28;20068;-77
2023/11/23 04:57:01;;;;;;;10.25;5.53;;;;;;;;;;6242273;28;20044;-78
2023/11/23 05:00:04;;;;;;;11.98;5.53;;;;;;;;;;6266054;28;20643;-78
2023/11/23 05:03:06;;;;;;;13.60;5.97;;;;;;;;;;6251607;28;20048;-76
2023/11/23 05:06:08;;;;;;;11.43;5.38;;;;;;;;;;6239065;28;20052;-78
2023/11/23 05:09:12;;;;;;;11.97;5.57;;;;;;;;;;6246539;28;20502;-76
2023/11/23 05:12:14;;;;;;;13.65;5.35;;;;;;;;;;6254839;28;20502;-78
2023/11/23 05:15:16;;;;;;;13.60;6.00;;;;;;;;;;6242261;28;20045;-78
2023/11/23 05:18:18;;;;;;;11.93;5.57;;;;;;;;;;6251857;28;20069;-77
2023/11/23 05:21:20;;;;;;;12.82;6.10;;;;;;;;;;6257536;28;20653;-78
2023/11/23 05:24:24;;;;;;;12.00;6.00;;;;;;;;;;6260972;28;20045;-77
2023/11/23 05:27:26;;;;;;;13.48;6.38;;;;;;;;;;6256154;28;20052;-78
2023/11/23 05:30:28;;;;;;;14.10;6.60;;;;;;;;;;6256978;28;20049;-77
2023/11/23 05:33:30;;;;;;;15.18;6.22;;;;;;;;;;6271315;28;20044;-77
2023/11/23 05:36:32;;;;;;;13.75;7.28;;;;;;;;;;6271409;28;20129;-77
2023/11/23 05:39:33;;;;;;;14.60;7.18;;;;;;;;;;6249742;28;20075;-76
2023/11/23 05:42:35;;;;;;;10.77;5.40;;;;;;;;;;6259268;28;20049;-77
2023/11/23 05:45:37;;;;;;;9.25;5.13;;;;;;;;;;6258992;28;20051;-77
2023/11/23 05:48:39;;;;;;;14.20;6.78;;;;;;;;;;6266270;28;20033;-77
2023/11/23 05:51:41;;;;;;;18.48;8.15;;;;;;;;;;6244512;28;20036;-78
2023/11/23 05:54:44;;;;;;;14.35;7.55;;;;;;;;;;6244486;28;20124;-78
2023/11/23 05:57:46;;;;;;;15.20;6.45;;;;;;;;;;6247532;28;20127;-78
2023/11/23 06:00:47;;;;;;;14.30;6.00;;;;;;;;;;6265374;28;20098;-76
2023/11/23 06:04:00;;;;;;;11.73;5.83;;;;;;;;;;6257378;28;20538;-78
2023/11/23 06:07:03;;;;;;;17.35;7.20;;;;;;;;;;6245725;28;20051;-78
2023/11/23 06:10:06;;;;;;;14.77;5.82;;;;;;;;;;6252585;28;20502;-76
2023/11/23 06:13:08;;;;;;;14.82;6.30;;;;;;;;;;6254652;28;20049;-78
2023/11/23 06:16:10;;;;;;;17.13;7.78;;;;;;;;;;6249929;28;20052;-77
2023/11/23 06:19:12;;;;;;;15.85;8.90;;;;;;;;;;6262304;28;20059;-77
2023/11/23 06:22:14;;;;;;;21.17;8.75;;;;;;;;;;6238591;28;20048;-78
2023/11/23 06:25:16;;;;;;;15.40;8.00;;;;;;;;;;6256883;28;20071;-78
2023/11/23 06:28:18;;;;;;;11.60;7.45;;;;;;;;;;6247062;28;20529;-77
2023/11/23 06:31:20;;;;;;;14.63;6.40;;;;;;;;;;6236351;28;20562;-76
2023/11/23 06:34:22;;;;;;;15.15;7.43;;;;;;;;;;6241943;28;20048;-78
2023/11/23 06:37:24;;;;;;;18.23;7.93;;;;;;;;;;6233812;28;20052;-77
2023/11/23 06:40:28;;;;;;;19.50;8.73;;;;;;;;;;6260324;28;20832;-76
2023/11/23 06:43:30;;;;;;;18.67;8.50;;;;;;;;;;6261527;28;20049;-78
2023/11/23 06:46:32;;;;;;;17.77;9.05;;;;;;;;;;6239023;28;20052;-78
2023/11/23 06:49:35;;;;;;;18.30;7.87;;;;;;;;;;6234597;28;20072;-76
2023/11/23 06:52:37;;;;;;;17.23;7.40;;;;;;;;;;6240401;28;20047;-80
2023/11/23 06:55:39;;;;;;;17.13;7.22;;;;;;;;;;6247575;28;20056;-78
2023/11/23 06:58:41;;;;;;;17.65;8.30;;;;;;;;;;6260601;28;20051;-79
2023/11/23 07:01:43;;;;;;;14.15;6.25;;;;;;;;;;6261340;28;20105;-78
2023/11/23 07:04:45;;;;;;;17.88;8.43;;;;;;;;;;6257955;28;20049;-77
2023/11/23 07:07:48;;;;;;;19.60;8.02;;;;;;;;;;6247750;28;20052;-78
2023/11/23 07:10:50;;;;;;;11.32;6.40;;;;;;;;;;6262897;28;20049;-78
2023/11/23 07:13:55;;;;;;;17.55;6.90;;;;;;;;;;6243466;28;20058;-79
2023/11/23 07:17:04;;;;;;;17.30;7.00;;;;;;;;;;6262974;28;20044;-78
2023/11/23 07:20:07;;;;;;;16.77;7.60;;;;;;;;;;6245822;28;20104;-79
2023/11/23 07:23:10;;;;;;;;;;;;;;;;;;6259121;28;20391;-79
2023/11/23 07:26:12;;;;;;;18.77;6.90;;;;;;;;;;6250652;28;19920;-78
2023/11/23 07:29:14;;;;;;;22.15;7.18;;;;;;;;;;6253596;28;20059;-79
2023/11/23 07:32:16;;;;;;;14.95;7.10;;;;;;;;;;6251983;28;20086;-79
2023/11/23 07:35:18;;;;;;;16.80;7.47;;;;;;;;;;6243215;28;20053;-78
2023/11/23 07:38:20;;;;;;;19.35;7.70;;;;;;;;;;6238845;28;20055;-80
2023/11/23 07:41:22;;;;;;;18.08;7.03;;;;;;;;;;6239698;28;20048;-79
2023/11/23 07:44:25;;;;;;;15.43;7.30;;;;;;;;;;6246553;28;20041;-80
2023/11/23 07:47:27;;;;;;;18.95;7.82;;;;;;;;;;6253323;28;20869;-79
2023/11/23 07:50:30;;;;;;;16.90;7.27;;;;;;;;;;6243354;28;20037;-79
2023/11/23 07:53:31;;;;;;;17.92;7.68;;;;;;;;;;6259744;28;20041;-78
2023/11/23 07:56:34;;;;;;;18.77;7.95;;;;;;;;;;6260316;28;20087;-78
2023/11/23 07:59:36;;;;;;;18.13;7.75;;;;;;;;;;6251588;28;20049;-78
2023/11/23 08:02:38;;;;;;;18.08;8.23;;;;;;;;;;6241943;28;20426;-78
2023/11/23 08:05:42;;;;;;;17.17;7.30;;;;;;;;;;6247615;28;20048;-78
2023/11/23 08:08:43;;;;;;;;;;;;;;;;;;6247722;28;20044;-79
2023/11/23 08:11:45;;;;;;;17.60;7.30;;;;;;;;;;6240358;28;19924;-79
2023/11/23 08:14:47;;;;;;;16.33;7.88;;;;;;;;;;6251941;28;20045;-78
2023/11/23 08:17:50;;;;;;;19.55;7.50;;;;;;;;;;6223469;28;20063;-79
2023/11/23 08:21:06;;;;;;;19.95;8.25;;;;;;;;;;6269708;28;20040;-77
2023/11/23 08:24:08;;;;;;;15.35;6.80;;;;;;;;;;6235552;28;20398;-78
2023/11/23 08:27:10;;;;;;;20.02;10.23;;;;;;;;;;6246840;28;20052;-80
2023/11/23 08:30:15;;;;;;;16.90;7.15;;;;;;;;;;6237136;28;20045;-81
2023/11/23 08:33:17;;;;;;;17.88;8.25;;;;;;;;;;6249177;28;20045;-79
2023/11/23 08:36:20;;;;;;;19.25;8.13;;;;;;;;;;6249455;28;20040;-79
2023/11/23 08:39:22;;;;;;;18.42;7.97;;;;;;;;;;6258262;28;20048;-81
2023/11/23 08:42:24;;;;;;;19.23;8.25;;;;;;;;;;6239665;28;20037;-79
2023/11/23 08:45:26;;;;;;;19.17;7.82;;;;;;;;;;6248798;28;20056;-79
2023/11/23 08:48:28;;;;;;;16.80;7.88;;;;;;;;;;6245268;28;20071;-79
2023/11/23 08:51:30;;;;;;;22.30;8.75;;;;;;;;;;6254804;28;20052;-77
2023/11/23 08:54:31;;;;;;;20.77;8.23;;;;;;;;;;6238618;28;20041;-77
2023/11/23 08:57:33;;;;;;;18.00;7.53;;;;;;;;;;6252472;28;20045;-77
2023/11/23 09:00:35;;;;;;;16.40;7.50;;;;;;;;;;6254441;28;20049;-78
2023/11/23 09:03:37;;;;;;;17.48;7.75;;;;;;;;;;6236956;28;20064;-78
2023/11/23 09:06:40;;;;;;;19.47;7.77;;;;;;;;;;6263875;28;20045;-76
2023/11/23 09:09:42;;;;;;;16.55;7.85;;;;;;;;;;6243669;28;20056;-77
2023/11/23 09:12:43;;;;;;;18.23;6.78;;;;;;;;;;6241865;28;20559;-77
2023/11/23 09:15:45;;;;;;;14.95;7.07;;;;;;;;;;6253125;28;20104;-77
2023/11/23 09:18:47;;;;;;;16.10;7.90;;;;;;;;;;6243433;28;20538;-77
2023/11/23 09:21:50;;;;;;;16.55;7.07;;;;;;;;;;6259591;28;20051;-77
2023/11/23 09:24:52;;;;;;;15.73;8.13;;;;;;;;;;6239619;28;20052;-77
2023/11/23 09:27:54;;;;;;;16.50;6.88;;;;;;;;;;6247570;28;20437;-77
2023/11/23 09:30:56;;;;;;;16.73;6.75;;;;;;;;;;6241323;28;20052;-77
2023/11/23 09:33:57;;;;;;;14.43;6.60;;;;;;;;;;6260215;28;20059;-77
2023/11/23 09:36:59;;;;;;;16.08;7.43;;;;;;;;;;6245370;28;20506;-76
2023/11/23 09:40:05;;;;;;;15.38;6.70;;;;;;;;;;6272984;28;20052;-77
2023/11/23 09:43:07;;;;;;;15.77;6.57;;;;;;;;;;6243187;28;20067;-77
2023/11/23 09:46:09;;;;;;;16.38;7.60;;;;;;;;;;6239139;28;20068;-77
2023/11/23 09:49:18;;;;;;;15.75;7.47;;;;;;;;;;6243977;28;20060;-78
2023/11/23 09:52:20;;;;;;;17.67;8.05;;;;;;;;;;6256469;28;20495;-78
2023/11/23 09:55:25;;;;;;;19.35;7.80;;;;;;;;;;6237008;28;20783;-78
2023/11/23 09:58:27;;;;;;;15.40;7.05;;;;;;;;;;6254533;28;20510;-78
2023/11/23 10:01:31;;;;;;;16.92;7.40;;;;;;;;;;6245982;28;20069;-78
2023/11/23 10:04:33;;;;;;;19.52;8.02;;;;;;;;;;6234184;28;20052;-77
2023/11/23 10:07:35;;;;;;;15.07;7.27;;;;;;;;;;6249680;28;20106;-77
2023/11/23 10:10:38;;;;;;;15.65;7.57;;;;;;;;;;6254488;28;20044;-78
2023/11/23 10:13:40;;;;;;;18.52;8.40;;;;;;;;;;6229388;28;20072;-77
2023/11/23 10:16:44;;;;;;;19.75;8.07;;;;;;;;;;6249828;28;20036;-77
2023/11/23 10:19:47;;;;;;;16.58;8.15;;;;;;;;;;6247643;28;20049;-77
2023/11/23 10:22:49;;;;;;;21.02;8.75;;;;;;;;;;6245189;28;20093;-78
2023/11/23 10:25:54;;;;;;;19.15;9.48;;;;;;;;;;6244844;28;20040;-77
2023/11/23 10:28:58;;;;;;;20.63;8.77;;;;;;;;;;6248959;28;20064;-78
2023/11/23 10:32:03;;;;;;;16.13;7.75;;;;;;;;;;6273709;28;20128;-78
2023/11/23 10:35:09;;;;;;;17.42;8.05;;;;;;;;;;6262357;28;20139;-78
2023/11/23 10:38:13;;;;;;;16.13;7.82;;;;;;;;;;6254165;28;20071;-79
2023/11/23 10:41:15;;;;;;;18.05;8.32;;;;;;;;;;6244940;28;20154;-78
2023/11/23 10:44:18;;;;;;;16.15;7.57;;;;;;;;;;6241473;28;20052;-78
2023/11/23 10:47:22;;;;;;;17.02;8.25;;;;;;;;;;6236701;28;20124;-79
2023/11/23 10:50:27;;;;;;;17.90;8.65;;;;;;;;;;6232790;28;20043;-78
2023/11/23 10:53:29;;;;;;;18.42;7.72;;;;;;;;;;6255026;28;20139;-78
2023/11/23 10:56:34;;;;;;;15.95;7.82;;;;;;;;;;6257730;28;20051;-77
2023/11/23 10:59:37;;;;;;;17.83;7.63;;;;;;;;;;6252996;28;20067;-78
2023/11/23 11:02:40;;;;;;;17.85;7.93;;;;;;;;;;6264379;28;20454;-79
2023/11/23 11:05:45;;;;;;;17.90;8.30;;;;;;;;;;6263796;28;20063;-80
2023/11/23 11:09:15;;;;;;;16.92;8.05;;;;;;;;;;6261831;28;20053;-80
2023/11/23 11:12:18;;;;;;;13.32;7.15;;;;;;;;;;6263096;28;20044;-79
2023/11/23 11:15:21;;;;;;;15.90;7.15;;;;;;;;;;6224115;28;20045;-78
2023/11/23 11:18:27;;;;;;;;;;;;;;;;;;6229521;28;20044;-79
2023/11/23 11:21:46;;;;;;;14.77;6.72;;;;;;;;;;6226747;28;19973;-79
2023/11/23 11:24:57;;;;;;;16.67;7.97;;;;;;;;;;6238206;28;20102;-80
2023/11/23 11:27:59;;;;;;;13.55;7.25;;;;;;;;;;6252573;28;20056;-80
2023/11/23 11:31:07;;;;;;;14.32;7.68;;;;;;;;;;6255626;28;20048;-80
2023/11/23 11:34:12;;;;;;;15.77;7.57;;;;;;;;;;6248082;28;20067;-79
2023/11/23 11:37:15;;;;;;;15.35;7.07;;;;;;;;;;6246352;28;20143;-78
2023/11/23 11:40:17;;;;;;;15.17;7.30;;;;;;;;;;6251933;28;20049;-80
2023/11/23 11:43:19;;;;;;;14.40;6.82;;;;;;;;;;6239979;28;20056;-79
2023/11/23 11:46:21;;;;;;;13.13;6.65;;;;;;;;;;6248959;28;20356;-80
2023/11/23 11:49:24;;;;;;;14.77;6.95;;;;;;;;;;6235881;28;20055;-79
2023/11/23 11:52:26;;;;;;;15.45;6.43;;;;;;;;;;6255746;28;20045;-79
2023/11/23 11:55:29;;;;;;;11.52;6.18;;;;;;;;;;6238677;28;20061;-80
2023/11/23 11:58:31;;;;;;;11.30;5.75;;;;;;;;;;6251559;28;20422;-80
2023/11/23 12:01:33;;;;;;;11.95;6.18;;;;;;;;;;6254440;28;20067;-79
2023/11/23 12:04:36;;;;;;;12.35;6.28;;;;;;;;;;6256618;28;20064;-78
2023/11/23 12:07:39;;;;;;;12.35;5.70;;;;;;;;;;6261685;28;20410;-78
2023/11/23 12:10:42;;;;;;;12.52;5.88;;;;;;;;;;6246325;28;20064;-78
2023/11/23 12:13:45;;;;;;;12.60;6.40;;;;;;;;;;6253623;28;20198;-76
2023/11/23 12:16:46;;;;;;;13.93;6.00;;;;;;;;;;6238585;28;20044;-79
2023/11/23 12:19:51;;;;;;;12.57;6.28;;;;;;;;;;6257340;28;20044;-77
2023/11/23 12:22:58;;;;;;;11.35;5.60;;;;;;;;;;6239787;28;20068;-80
2023/11/23 12:26:01;;;;;;;11.90;6.53;;;;;;;;;;6253745;28;20092;-77
2023/11/23 12:29:03;;;;;;;12.25;5.43;;;;;;;;;;6258850;28;20040;-78
2023/11/23 12:32:06;;;;;;;10.52;5.70;;;;;;;;;;6239809;28;20044;-78
2023/11/23 12:35:09;;;;;;;8.23;4.72;;;;;;;;;;6253675;28;20613;-78
2023/11/23 12:38:11;;;;;;;14.65;7.70;;;;;;;;;;6254570;28;20517;-78
2023/11/23 12:41:13;;;;;;;10.87;5.43;;;;;;;;;;6246562;28;20044;-78
2023/11/23 12:44:15;;;;;;;8.25;4.55;;;;;;;;;;6238960;28;20040;-78
2023/11/23 12:47:16;;;;;;;9.13;5.03;;;;;;;;;;6252635;28;20063;-77
2023/11/23 12:50:21;;;;;;;10.38;5.10;;;;;;;;;;6238833;28;20053;-79
2023/11/23 12:53:23;;;;;;;7.13;4.88;;;;;;;;;;6254770;28;20044;-78
2023/11/23 12:56:28;;;;;;;9.48;5.90;;;;;;;;;;6241019;28;20060;-79
2023/11/23 12:59:30;;;;;;;11.45;5.03;;;;;;;;;;6263106;28;20124;-79
2023/11/23 13:02:34;;;;;;;8.90;4.40;;;;;;;;;;6246138;28;20044;-80
2023/11/23 13:05:36;;;;;;;10.18;5.63;;;;;;;;;;6239875;28;20048;-79
2023/11/23 13:08:37;;;;;;;8.88;5.07;;;;;;;;;;6236550;28;20097;-79
2023/11/23 13:11:39;;;;;;;7.95;4.72;;;;;;;;;;6253993;28;20159;-80
2023/11/23 13:14:42;;;;;;;8.63;4.97;;;;;;;;;;6243549;28;20136;-79
2023/11/23 13:17:44;;;;;;;8.75;4.97;;;;;;;;;;6243445;28;20055;-78
2023/11/23 13:20:46;;;;;;;11.20;5.25;;;;;;;;;;6245492;28;20178;-79
2023/11/23 13:23:48;;;;;;;10.05;5.15;;;;;;;;;;6250134;28;20155;-79
2023/11/23 13:26:51;;;;;;;9.75;5.05;;;;;;;;;;6253659;28;20048;-79
2023/11/23 13:29:53;;;;;;;10.63;5.45;;;;;;;;;;6245479;28;20048;-78
2023/11/23 13:32:58;;;;;;;13.02;5.72;;;;;;;;;;6244839;28;20056;-78
2023/11/23 13:36:00;;;;;;;41.25;17.38;;;;;;;;;;6247941;28;20048;-79
2023/11/23 13:39:06;;;;;;;10.52;5.40;;;;;;;;;;6233848;28;20048;-78
2023/11/23 13:42:11;;;;;;;10.32;4.88;;;;;;;;;;6242128;28;20116;-78
2023/11/23 13:45:13;;;;;;;11.57;5.72;;;;;;;;;;6257172;28;20055;-78
2023/11/23 13:48:18;;;;;;;8.43;4.65;;;;;;;;;;6265994;28;20059;-78
2023/11/23 13:51:21;;;;;;;10.43;5.30;;;;;;;;;;6247288;28;20426;-78
2023/11/23 13:54:25;;;;;;;8.18;4.05;;;;;;;;;;6267443;28;20052;-78
2023/11/23 13:57:27;;;;;;;7.87;4.17;;;;;;;;;;6250864;28;20052;-77
2023/11/23 14:00:29;;;;;;;7.85;4.60;;;;;;;;;;6259492;28;20527;-79
2023/11/23 14:03:32;;;;;;;8.75;4.90;;;;;;;;;;6249825;28;20048;-79
2023/11/23 14:06:34;;;;;;;9.05;4.93;;;;;;;;;;6237553;28;20573;-79
2023/11/23 14:09:36;;;;;;;10.82;5.32;;;;;;;;;;6232957;28;20068;-79
2023/11/23 14:12:38;;;;;;;8.38;5.05;;;;;;;;;;6257045;28;20055;-79
2023/11/23 14:15:40;;;;;;;9.80;5.03;;;;;;;;;;6262384;28;20047;-79
2023/11/23 14:18:42;;;;;;;10.90;5.30;;;;;;;;;;6240692;28;20075;-80
2023/11/23 14:21:47;;;;;;;11.52;6.38;;;;;;;;;;6256022;28;20045;-78
2023/11/23 14:24:49;;;;;;;8.88;5.47;;;;;;;;;;6257754;28;20170;-79
2023/11/23 14:27:52;;;;;;;10.68;6.03;;;;;;;;;;6252201;28;20064;-79
2023/11/23 14:30:55;;;;;;;10.52;5.47;;;;;;;;;;6246288;28;20510;-79
2023/11/23 14:33:57;;;;;;;10.88;5.70;;;;;;;;;;6267466;28;20067;-80
2023/11/23 14:36:59;;;;;;;10.85;6.07;;;;;;;;;;6250367;28;20051;-80
2023/11/23 14:40:13;;;;;;;9.55;4.35;;;;;;;;;;6242938;28;20049;-80
2023/11/23 14:43:17;;;;;;;10.77;5.63;;;;;;;;;;6261431;28;20560;-79
2023/11/23 14:46:21;;;;;;;7.05;4.40;;;;;;;;;;6259381;28;20060;-79
2023/11/23 14:49:24;;;;;;;10.88;5.18;;;;;;;;;;6251808;28;20045;-79
2023/11/23 14:52:27;;;;;;;10.32;5.32;;;;;;;;;;6246746;28;20041;-78
2023/11/23 14:55:28;;;;;;;8.98;4.45;;;;;;;;;;6237126;28;20048;-78
2023/11/23 14:58:32;;;;;;;10.10;5.20;;;;;;;;;;6247412;28;20048;-77
2023/11/23 15:01:35;;;;;;;11.18;5.97;;;;;;;;;;6246562;28;20044;-78
2023/11/23 15:04:37;;;;;;;11.70;4.78;;;;;;;;;;6245393;28;20110;-79
2023/11/23 15:07:39;;;;;;;8.57;4.75;;;;;;;;;;6260483;28;20134;-78
2023/11/23 15:10:41;;;;;;;9.20;4.87;;;;;;;;;;6238962;28;20038;-79
2023/11/23 15:13:44;;;;;;;8.75;5.03;;;;;;;;;;6268589;28;20612;-78
2023/11/23 15:16:46;;;;;;;11.15;5.28;;;;;;;;;;6239784;28;20052;-80
2023/11/23 15:19:48;;;;;;;10.50;5.35;;;;;;;;;;6257433;28;20051;-81
2023/11/23 15:22:50;;;;;;;8.68;4.85;;;;;;;;;;6256731;28;20136;-81
2023/11/23 15:25:54;;;;;;;8.30;4.47;;;;;;;;;;6256359;28;20066;-76
2023/11/23 15:28:58;;;;;;;;;;;;;;;;;;6249444;28;20664;-79
2023/11/23 15:32:02;;;;;;;;;;;;;;;;;;6249340;28;20034;-80
2023/11/23 15:35:12;;;;;;;8.60;4.63;;;;;;;;;;6261588;28;20426;-79
2023/11/23 15:38:15;;;;;;;10.48;5.15;;;;;;;;;;6255929;28;20049;-79
2023/11/23 15:41:17;;;;;;;10.73;5.28;;;;;;;;;;6257346;28;20213;-79
2023/11/23 15:44:19;;;;;;;10.53;5.10;;;;;;;;;;6238786;28;20593;-78
2023/11/23 15:47:22;;;;;;;9.05;4.75;;;;;;;;;;6262113;28;20048;-80
2023/11/23 15:50:25;;;;;;;;;;;;;;;;;;6249704;28;20047;-80
2023/11/23 15:53:29;;;;;;;11.68;4.70;;;;;;;;;;6253594;28;19927;-80
2023/11/23 15:56:31;;;;;;;11.80;6.00;;;;;;;;;;6241421;28;20041;-81
2023/11/23 15:59:33;;;;;;;15.57;7.53;;;;;;;;;;6259443;28;20099;-79
2023/11/23 16:02:39;;;;;;;12.93;7.28;;;;;;;;;;6246248;28;20370;-79
2023/11/23 16:05:41;;;;;;;12.00;6.82;;;;;;;;;;6264262;28;20052;-80
2023/11/23 16:08:45;;;;;;;13.88;7.63;;;;;;;;;;6252210;28;20052;-78
2023/11/23 16:11:46;;;;;;;;;;;;;;;;;;6258792;28;20545;-80
2023/11/23 16:14:49;;;;;;;14.90;7.75;;;;;;;;;;6258664;28;19924;-80
2023/11/23 16:17:51;;;;;;;18.88;8.93;;;;;;;;;;6243871;28;20056;-79
2023/11/23 16:20:53;;;;;;;15.32;8.48;;;;;;;;;;6243419;28;20048;-79
2023/11/23 16:23:59;;;;;;;17.05;9.07;;;;;;;;;;6233869;28;20586;-80
2023/11/23 16:27:01;;;;;;;15.43;8.55;;;;;;;;;;6253325;28;20116;-75
2023/11/23 16:30:03;;;;;;;20.13;8.77;;;;;;;;;;6238693;28;20044;-80
2023/11/23 16:33:04;;;;;;;17.30;8.40;;;;;;;;;;6254591;28;20100;-79
2023/11/23 16:36:15;;;;;;;20.55;8.98;;;;;;;;;;6244066;28;20349;-77
2023/11/23 16:39:31;;;;;;;16.30;8.15;;;;;;;;;;6238941;28;20050;-76
2023/11/23 16:42:33;;;;;;;14.90;8.70;;;;;;;;;;6251166;28;20053;-77
2023/11/23 16:45:38;;;;;;;17.45;9.32;;;;;;;;;;6240134;28;20047;-78
2023/11/23 16:48:41;;;;;;;17.85;9.65;;;;;;;;;;6241915;28;20056;-78
2023/11/23 16:51:42;;;;;;;16.73;8.82;;;;;;;;;;6261143;28;20386;-78
2023/11/23 16:54:45;;;;;;;18.55;9.07;;;;;;;;;;6250843;28;20049;-79
2023/11/23 16:57:47;;;;;;;20.08;8.82;;;;;;;;;;6239082;28;20056;-78
2023/11/23 17:00:49;;;;;;;20.85;11.05;;;;;;;;;;6228239;28;20433;-79
2023/11/23 17:03:51;;;;;;;18.92;9.88;;;;;;;;;;6239250;28;20429;-79
2023/11/23 17:06:53;;;;;;;23.67;11.75;;;;;;;;;;6235384;28;20574;-78
2023/11/23 17:09:54;;;;;;;16.50;8.63;;;;;;;;;;6241289;28;20462;-78
2023/11/23 17:12:56;;;;;;;15.82;7.70;;;;;;;;;;6252697;28;20054;-78
2023/11/23 17:15:58;;;;;;;17.98;10.00;;;;;;;;;;6269959;28;20052;-77
2023/11/23 17:19:00;;;;;;;16.92;8.48;;;;;;;;;;6248835;28;20663;-79
2023/11/23 17:22:03;;;;;;;18.38;9.02;;;;;;;;;;6252558;28;20100;-76
2023/11/23 17:25:05;;;;;;;17.77;9.43;;;;;;;;;;6242756;28;20044;-78
2023/11/23 17:28:08;;;;;;;14.20;8.33;;;;;;;;;;6244512;28;20086;-79
2023/11/23 17:31:09;;;;;;;16.58;9.02;;;;;;;;;;6244003;28;20074;-79
2023/11/23 17:34:11;;;;;;;15.93;7.72;;;;;;;;;;6251765;28;20449;-79
2023/11/23 17:37:14;;;;;;;15.13;8.73;;;;;;;;;;6258746;28;20412;-79
2023/11/23 17:40:15;;;;;;;14.52;8.27;;;;;;;;;;6237527;28;20044;-79
2023/11/23 17:43:18;;;;;;;14.57;8.10;;;;;;;;;;6241279;28;20045;-79
2023/11/23 17:46:22;;;;;;;14.68;7.97;;;;;;;;;;6247618;28;20048;-80
2023/11/23 17:49:25;;;;;;;14.10;7.90;;;;;;;;;;6249345;28;20064;-80
2023/11/23 17:52:27;;;;;;;10.95;6.40;;;;;;;;;;6242932;28;20040;-81
2023/11/23 17:55:31;;;;;;;13.75;6.80;;;;;;;;;;6238878;28;20054;-81
2023/11/23 17:58:33;;;;;;;16.45;7.45;;;;;;;;;;6249118;28;20068;-78
2023/11/23 18:01:35;;;;;;;15.43;8.18;;;;;;;;;;6252833;28;20064;-78
2023/11/23 18:04:38;;;;;;;12.98;7.47;;;;;;;;;;6251022;28;20045;-80
2023/11/23 18:07:41;;;;;;;15.60;8.03;;;;;;;;;;6243643;28;20068;-78